createdAt,value
2022-11-27T00:01:31.399Z,20.80
2022-11-27T00:03:58.394Z,19.13
2022-11-27T00:06:27.937Z,20.85
2022-11-27T00:09:04.031Z,19.35
2022-11-27T00:11:32.268Z,19.60
2022-11-27T00:14:00.540Z,20.52
2022-11-27T00:16:28.843Z,21.13
2022-11-27T00:18:56.172Z,20.40
2022-11-27T00:21:29.239Z,20.95
2022-11-27T00:23:58.252Z,21.42
2022-11-27T00:26:25.747Z,19.05
2022-11-27T00:28:55.128Z,19.92
2022-11-27T00:31:31.354Z,20.20
2022-11-27T00:34:00.579Z,23.85
2022-11-27T00:36:32.707Z,21.15
2022-11-27T00:39:00.540Z,20.73
2022-11-27T00:41:30.166Z,20.40
2022-11-27T00:43:57.845Z,21.45
2022-11-27T00:46:30.513Z,21.38
2022-11-27T00:48:59.170Z,19.98
2022-11-27T00:51:28.636Z,21.35
2022-11-27T00:53:56.147Z,19.98
2022-11-27T00:56:29.189Z,19.25
2022-11-27T00:58:57.002Z,19.95
2022-11-27T01:01:30.728Z,21.05
2022-11-27T01:03:59.646Z,21.65
2022-11-27T01:06:28.523Z,20.98
2022-11-27T01:08:56.117Z,20.13
2022-11-27T01:11:30.976Z,21.45
2022-11-27T01:14:01.377Z,22.95
2022-11-27T01:16:30.757Z,22.23
2022-11-27T01:18:59.955Z,23.88
2022-11-27T01:21:30.106Z,21.45
2022-11-27T01:23:56.943Z,21.77
2022-11-27T01:26:25.086Z,21.95
2022-11-27T01:28:56.778Z,22.60
2022-11-27T01:31:27.348Z,22.92
2022-11-27T01:33:57.087Z,22.95
2022-11-27T01:36:25.010Z,23.80
2022-11-27T01:38:52.378Z,22.80
2022-11-27T01:41:30.114Z,23.27
2022-11-27T01:44:00.424Z,22.00
2022-11-27T01:46:43.981Z,22.87
2022-11-27T01:49:11.091Z,23.02
2022-11-27T01:51:50.111Z,21.95
2022-11-27T01:54:18.710Z,23.80
2022-11-27T01:56:50.259Z,23.88
2022-11-27T01:59:18.522Z,23.58
2022-11-27T02:01:45.816Z,22.33
2022-11-27T02:04:13.120Z,23.63
2022-11-27T02:06:40.522Z,24.08
2022-11-27T02:09:07.602Z,24.65
2022-11-27T02:11:48.786Z,25.52
2022-11-27T02:14:18.982Z,27.50
2022-11-27T02:17:02.858Z,25.45
2022-11-27T02:19:57.896Z,24.40
2022-11-27T02:22:45.454Z,23.60
2022-11-27T02:25:25.267Z,22.50
2022-11-27T02:28:08.346Z,24.90
2022-11-27T02:30:41.653Z,27.15
2022-11-27T02:33:12.860Z,27.58
2022-11-27T02:35:48.232Z,27.90
2022-11-27T02:38:27.263Z,26.63
2022-11-27T02:41:02.058Z,29.05
2022-11-27T02:43:36.409Z,29.70
2022-11-27T02:46:06.861Z,26.50
2022-11-27T02:48:39.742Z,26.05
2022-11-27T02:51:07.820Z,27.67
2022-11-27T02:53:44.375Z,28.30
2022-11-27T02:56:16.199Z,28.58
2022-11-27T02:58:46.364Z,27.50
2022-11-27T03:01:14.854Z,27.63
2022-11-27T03:03:47.554Z,30.10
2022-11-27T03:06:27.363Z,27.15
2022-11-27T03:09:00.275Z,28.83
2022-11-27T03:11:30.982Z,28.42
2022-11-27T03:14:04.382Z,29.08
2022-11-27T03:16:52.764Z,28.02
2022-11-27T03:19:25.838Z,26.88
2022-11-27T03:21:56.466Z,29.40
2022-11-27T03:24:25.107Z,26.80
2022-11-27T03:26:52.475Z,27.17
2022-11-27T03:29:36.488Z,26.05
2022-11-27T03:32:04.603Z,26.92
2022-11-27T03:34:32.978Z,25.55
2022-11-27T03:37:00.615Z,28.23
2022-11-27T03:39:29.580Z,29.52
2022-11-27T03:42:24.220Z,26.15
2022-11-27T03:45:35.088Z,29.88
2022-11-27T03:48:17.615Z,29.27
2022-11-27T03:50:59.865Z,26.73
2022-11-27T03:54:01.070Z,26.30
2022-11-27T03:59:17.530Z,27.83
2022-11-27T04:01:45.990Z,27.17
2022-11-27T04:04:13.619Z,27.95
2022-11-27T04:06:41.927Z,26.45
2022-11-27T04:09:08.859Z,29.35
2022-11-27T04:11:36.541Z,29.45
2022-11-27T04:14:03.795Z,29.23
2022-11-27T04:16:31.082Z,29.55
2022-11-27T04:18:58.043Z,29.33
2022-11-27T04:21:25.442Z,29.90
2022-11-27T04:23:52.812Z,29.42
2022-11-27T04:26:20.009Z,28.17
2022-11-27T04:28:46.954Z,28.38
2022-11-27T04:31:14.176Z,28.25
2022-11-27T04:33:41.070Z,27.23
2022-11-27T04:36:08.442Z,28.88
2022-11-27T04:38:35.353Z,28.80
2022-11-27T04:41:02.621Z,28.90
2022-11-27T04:43:29.606Z,26.92
2022-11-27T04:45:57.013Z,27.70
2022-11-27T04:48:23.879Z,28.77
2022-11-27T04:50:51.090Z,27.92
2022-11-27T04:53:37.644Z,26.15
2022-11-27T04:56:22.901Z,26.05
2022-11-27T04:58:50.341Z,26.63
2022-11-27T05:01:17.467Z,27.02
2022-11-27T05:03:46.612Z,27.75
2022-11-27T05:06:14.180Z,27.80
2022-11-27T05:08:41.704Z,27.65
2022-11-27T05:11:13.130Z,27.17
2022-11-27T05:13:40.694Z,27.45
2022-11-27T05:16:08.224Z,27.25
2022-11-27T05:18:35.725Z,27.05
2022-11-27T05:21:08.081Z,26.73
2022-11-27T05:23:35.372Z,25.52
2022-11-27T05:26:03.551Z,26.42
2022-11-27T05:28:30.961Z,27.13
2022-11-27T05:30:57.814Z,25.27
2022-11-27T05:33:25.037Z,28.08
2022-11-27T05:35:51.955Z,26.38
2022-11-27T05:38:19.157Z,26.23
2022-11-27T05:40:46.006Z,27.75
2022-11-27T05:43:13.162Z,26.05
2022-11-27T05:45:40.031Z,26.67
2022-11-27T05:48:07.221Z,25.75
2022-11-27T05:50:34.122Z,26.33
2022-11-27T05:53:01.451Z,25.80
2022-11-27T05:55:28.597Z,26.00
2022-11-27T05:57:55.802Z,28.85
2022-11-27T06:00:22.887Z,26.00
2022-11-27T06:02:50.161Z,28.50
2022-11-27T06:05:17.155Z,29.60
2022-11-27T06:07:44.515Z,26.48
2022-11-27T06:10:11.659Z,26.55
2022-11-27T06:12:38.943Z,27.98
2022-11-27T06:15:06.202Z,29.15
2022-11-27T06:17:33.371Z,27.42
2022-11-27T06:20:00.293Z,29.05
2022-11-27T06:22:27.544Z,27.70
2022-11-27T06:24:54.398Z,29.48
2022-11-27T06:27:21.956Z,31.42
2022-11-27T06:29:48.967Z,28.45
2022-11-27T06:32:16.350Z,29.00
2022-11-27T06:34:43.604Z,27.60
2022-11-27T06:37:13.319Z,30.50
2022-11-27T06:39:40.518Z,31.67
2022-11-27T06:42:07.744Z,29.95
2022-11-27T06:44:34.925Z,29.77
2022-11-27T06:47:02.418Z,28.05
2022-11-27T06:49:29.409Z,28.42
2022-11-27T06:51:56.556Z,27.92
2022-11-27T06:54:23.869Z,30.05
2022-11-27T06:56:51.411Z,26.95
2022-11-27T06:59:18.908Z,27.25
2022-11-27T07:01:46.514Z,30.23
2022-11-27T07:04:15.661Z,28.90
2022-11-27T07:06:43.775Z,29.67
2022-11-27T07:09:10.729Z,28.23
2022-11-27T07:11:38.928Z,28.65
2022-11-27T07:14:06.660Z,27.67
2022-11-27T07:16:36.375Z,27.52
2022-11-27T07:19:07.881Z,28.48
2022-11-27T07:21:38.153Z,28.33
2022-11-27T07:24:05.339Z,27.40
2022-11-27T07:26:32.610Z,26.52
2022-11-27T07:28:59.752Z,26.92
2022-11-27T07:31:30.152Z,27.30
2022-11-27T07:33:57.464Z,26.20
2022-11-27T07:36:27.259Z,27.75
2022-11-27T07:38:54.527Z,28.15
2022-11-27T07:41:22.216Z,26.90
2022-11-27T07:43:49.442Z,28.27
2022-11-27T07:46:19.603Z,28.80
2022-11-27T07:48:46.877Z,26.67
2022-11-27T07:51:17.387Z,26.65
2022-11-27T07:53:44.417Z,26.08
2022-11-27T07:56:13.933Z,27.58
2022-11-27T07:58:41.664Z,27.77
2022-11-27T08:01:11.784Z,27.48
2022-11-27T08:03:39.192Z,26.27
2022-11-27T08:06:24.265Z,26.05
2022-11-27T08:08:52.741Z,27.27
2022-11-27T08:11:25.927Z,26.50
2022-11-27T08:13:57.785Z,28.38
2022-11-27T08:16:25.354Z,27.67
2022-11-27T08:18:52.975Z,29.15
2022-11-27T08:21:20.284Z,27.73
2022-11-27T08:23:47.771Z,27.35
2022-11-27T08:26:15.802Z,27.95
2022-11-27T08:28:43.003Z,28.50
2022-11-27T08:31:13.754Z,28.13
2022-11-27T08:33:41.745Z,28.77
2022-11-27T08:36:13.702Z,28.33
2022-11-27T08:38:44.517Z,31.00
2022-11-27T08:41:11.946Z,28.40
2022-11-27T08:43:38.957Z,28.13
2022-11-27T08:46:07.684Z,28.70
2022-11-27T08:48:35.697Z,28.02
2022-11-27T08:51:08.807Z,28.55
2022-11-27T08:53:37.847Z,27.58
2022-11-27T08:56:08.728Z,29.17
2022-11-27T08:58:35.870Z,28.75
2022-11-27T09:01:30.685Z,30.45
2022-11-27T09:03:58.149Z,26.23
2022-11-27T09:06:31.381Z,27.13
2022-11-27T09:09:00.185Z,27.00
2022-11-27T09:11:29.094Z,27.70
2022-11-27T09:13:56.026Z,28.40
2022-11-27T09:16:23.328Z,29.27
2022-11-27T09:18:52.116Z,26.92
2022-11-27T09:21:23.080Z,29.88
2022-11-27T09:23:55.193Z,29.00
2022-11-27T09:26:24.089Z,28.80
2022-11-27T09:28:52.726Z,26.98
2022-11-27T09:31:20.772Z,28.58
2022-11-27T09:33:47.805Z,28.17
2022-11-27T09:36:18.512Z,26.75
2022-11-27T09:38:45.542Z,28.05
2022-11-27T09:41:39.745Z,27.65
2022-11-27T09:44:42.902Z,26.10
2022-11-27T09:47:41.975Z,27.38
2022-11-27T09:50:26.304Z,27.27
2022-11-27T09:52:59.216Z,25.38
2022-11-27T09:55:33.911Z,27.10
2022-11-27T09:58:31.049Z,27.63
2022-11-27T10:00:58.781Z,25.35
2022-11-27T10:03:28.233Z,27.45
2022-11-27T10:06:05.844Z,27.33
2022-11-27T10:09:14.798Z,29.58
2022-11-27T10:12:03.562Z,26.55
2022-11-27T10:14:59.975Z,26.52
2022-11-27T10:17:33.452Z,29.45
2022-11-27T10:20:11.586Z,28.58
2022-11-27T10:22:41.738Z,27.02
2022-11-27T10:25:12.129Z,29.85
2022-11-27T10:28:00.440Z,29.55
2022-11-27T10:30:31.287Z,26.60
2022-11-27T10:33:00.840Z,29.20
2022-11-27T10:35:30.791Z,29.80
2022-11-27T10:38:07.459Z,28.50
2022-11-27T10:40:43.024Z,27.25
2022-11-27T10:43:23.497Z,28.55
2022-11-27T10:45:59.295Z,28.00
2022-11-27T10:48:28.549Z,28.60
2022-11-27T10:50:56.329Z,27.33
2022-11-27T10:53:31.959Z,27.80
2022-11-27T10:56:27.079Z,27.48
2022-11-27T10:59:00.683Z,29.58
2022-11-27T11:01:42.853Z,27.75
2022-11-27T11:04:36.511Z,26.65
2022-11-27T11:06:59.523Z,27.70
2022-11-27T11:09:31.968Z,27.40
2022-11-27T11:12:21.222Z,27.02
2022-11-27T11:14:52.645Z,25.95
2022-11-27T11:17:40.926Z,27.77
2022-11-27T11:20:24.935Z,27.73
2022-11-27T11:22:52.346Z,26.08
2022-11-27T11:25:21.246Z,28.55
2022-11-27T11:27:50.681Z,28.45
2022-11-27T11:30:30.364Z,27.00
2022-11-27T11:33:02.962Z,27.10
2022-11-27T11:35:37.120Z,27.75
2022-11-27T11:38:14.465Z,27.70
2022-11-27T11:40:44.777Z,26.05
2022-11-27T11:43:28.012Z,26.77
2022-11-27T11:45:56.453Z,25.08
2022-11-27T11:48:27.103Z,27.10
2022-11-27T11:50:57.448Z,26.33
2022-11-27T11:53:45.589Z,26.00
2022-11-27T11:56:43.126Z,25.95
2022-11-27T11:59:44.901Z,28.13
2022-11-27T12:02:43.006Z,25.80
2022-11-27T12:05:38.967Z,26.48
2022-11-27T12:08:34.021Z,26.60
2022-11-27T12:11:19.092Z,28.63
2022-11-27T12:14:02.439Z,27.52
2022-11-27T12:16:49.121Z,26.55
2022-11-27T12:19:34.997Z,26.30
2022-11-27T12:22:11.569Z,26.13
2022-11-27T12:25:06.603Z,27.33
2022-11-27T12:28:16.469Z,27.98
2022-11-27T12:30:58.971Z,26.20
2022-11-27T12:33:36.060Z,26.67
2022-11-27T12:36:29.219Z,25.40
2022-11-27T12:39:11.230Z,26.30
2022-11-27T12:44:44.998Z,25.10
2022-11-27T12:47:33.978Z,26.17
2022-11-27T12:50:24.041Z,25.52
2022-11-27T12:53:03.405Z,26.42
2022-11-27T12:55:34.936Z,26.17
2022-11-27T12:58:22.015Z,27.00
2022-11-27T13:00:51.445Z,27.30
2022-11-27T13:03:30.791Z,26.63
2022-11-27T13:06:09.722Z,26.63
2022-11-27T13:08:59.972Z,26.73
2022-11-27T13:11:37.674Z,25.40
2022-11-27T13:14:32.646Z,26.52
2022-11-27T13:17:05.205Z,27.48
2022-11-27T13:19:36.246Z,26.20
2022-11-27T13:22:07.587Z,29.50
2022-11-27T13:24:35.767Z,28.55
2022-11-27T13:27:10.751Z,27.13
2022-11-27T13:29:44.343Z,26.02
2022-11-27T13:32:27.731Z,27.38
2022-11-27T13:34:58.519Z,26.85
2022-11-27T13:37:37.002Z,25.83
2022-11-27T13:40:23.949Z,26.52
2022-11-27T13:42:55.793Z,27.73
2022-11-27T13:45:27.792Z,28.15
2022-11-27T13:47:57.318Z,27.05
2022-11-27T13:50:30.908Z,27.33
2022-11-27T13:53:04.385Z,27.92
2022-11-27T13:55:40.235Z,28.23
2022-11-27T13:58:08.435Z,26.42
2022-11-27T14:00:42.370Z,26.33
2022-11-27T14:03:30.564Z,23.27
2022-11-27T14:05:57.764Z,24.48
2022-11-27T14:08:34.388Z,24.63
2022-11-27T14:11:08.781Z,25.15
2022-11-27T14:13:52.130Z,22.42
2022-11-27T14:16:26.390Z,25.35
2022-11-27T14:18:58.975Z,24.70
2022-11-27T14:21:42.546Z,25.67
2022-11-27T14:24:34.532Z,25.33
2022-11-27T14:27:20.810Z,24.33
2022-11-27T14:29:49.000Z,24.33
2022-11-27T14:32:17.848Z,25.90
2022-11-27T14:34:48.003Z,25.65
2022-11-27T14:37:23.684Z,25.55
2022-11-27T14:39:51.290Z,23.73
2022-11-27T14:42:29.484Z,25.85
2022-11-27T14:45:27.075Z,26.13
2022-11-27T14:47:55.945Z,26.00
2022-11-27T14:50:23.306Z,25.58
2022-11-27T14:52:54.768Z,26.30
2022-11-27T14:55:22.988Z,25.50
2022-11-27T14:57:50.957Z,24.25
2022-11-27T15:00:31.544Z,26.35
2022-11-27T15:03:09.448Z,28.50
2022-11-27T15:05:38.689Z,25.45
2022-11-27T15:08:10.321Z,24.13
2022-11-27T15:10:40.509Z,27.15
2022-11-27T15:13:21.066Z,26.25
2022-11-27T15:15:57.690Z,26.17
2022-11-27T15:18:27.324Z,26.83
2022-11-27T15:20:55.585Z,25.42
2022-11-27T15:23:26.315Z,26.58
2022-11-27T15:25:59.313Z,26.23
2022-11-27T15:28:50.603Z,27.33
2022-11-27T15:34:04.319Z,25.00
2022-11-27T15:36:38.290Z,26.40
2022-11-27T15:39:20.586Z,26.48
2022-11-27T15:42:09.882Z,26.08
2022-11-27T15:44:38.286Z,26.92
2022-11-27T15:47:07.034Z,28.50
2022-11-27T15:49:34.097Z,26.80
2022-11-27T15:52:01.518Z,26.20
2022-11-27T15:54:28.638Z,28.35
2022-11-27T15:56:56.001Z,27.42
2022-11-27T15:59:24.836Z,26.80
2022-11-27T16:01:52.367Z,27.42
2022-11-27T16:04:19.342Z,27.80
2022-11-27T16:06:46.964Z,27.33
2022-11-27T16:09:14.054Z,27.83
2022-11-27T16:11:41.375Z,27.48
2022-11-27T16:14:08.473Z,27.77
2022-11-27T16:16:36.191Z,28.15
2022-11-27T16:19:05.528Z,29.42
2022-11-27T16:21:34.608Z,27.50
2022-11-27T16:24:04.136Z,27.88
2022-11-27T16:26:32.187Z,28.38
2022-11-27T16:28:59.179Z,27.55
2022-11-27T16:31:27.607Z,27.25
2022-11-27T16:33:54.532Z,27.52
2022-11-27T16:36:24.733Z,28.30
2022-11-27T16:38:52.944Z,29.58
2022-11-27T16:41:21.298Z,28.02
2022-11-27T16:43:51.806Z,27.88
2022-11-27T16:46:25.876Z,29.60
2022-11-27T16:48:54.924Z,27.55
2022-11-27T16:51:29.174Z,28.33
2022-11-27T16:53:57.809Z,29.05
2022-11-27T16:56:27.559Z,27.90
2022-11-27T16:58:58.083Z,29.20
2022-11-27T17:01:32.591Z,28.95
2022-11-27T17:03:59.847Z,27.50
2022-11-27T17:06:29.863Z,28.30
2022-11-27T17:08:59.582Z,28.88
2022-11-27T17:11:29.378Z,31.73
2022-11-27T17:13:59.003Z,29.50
2022-11-27T17:16:28.237Z,29.13
2022-11-27T17:18:55.348Z,31.27
2022-11-27T17:21:26.409Z,32.22
2022-11-27T17:24:07.854Z,31.95
2022-11-27T17:26:42.661Z,33.28
2022-11-27T17:31:39.106Z,32.13
2022-11-27T17:34:07.394Z,33.53
2022-11-27T17:36:37.426Z,33.25
2022-11-27T17:39:06.803Z,33.67
2022-11-27T17:41:34.676Z,33.08
2022-11-27T17:44:05.510Z,31.95
2022-11-27T17:46:33.750Z,31.48
2022-11-27T17:49:04.762Z,33.63
2022-11-27T17:51:33.953Z,34.20
2022-11-27T17:54:02.439Z,32.13
2022-11-27T17:59:01.446Z,29.52
2022-11-27T18:01:30.655Z,31.92
2022-11-27T18:04:01.137Z,33.50
2022-11-27T18:06:32.529Z,32.13
2022-11-27T18:09:01.182Z,33.60
2022-11-27T18:11:32.123Z,32.92
2022-11-27T18:14:01.507Z,33.22
2022-11-27T18:16:36.983Z,34.65
2022-11-27T18:19:06.844Z,34.53
2022-11-27T18:21:34.922Z,31.75
2022-11-27T18:29:40.029Z,34.58
2022-11-27T18:32:08.541Z,35.38
2022-11-27T18:34:35.694Z,33.67
2022-11-27T18:37:04.218Z,34.65
2022-11-27T18:39:32.151Z,35.22
2022-11-27T18:41:59.875Z,34.95
2022-11-27T18:44:27.185Z,33.70
2022-11-27T18:46:55.521Z,34.40
2022-11-27T18:49:23.587Z,36.55
2022-11-27T18:51:53.544Z,35.75
2022-11-27T18:54:21.757Z,33.92
2022-11-27T18:56:49.165Z,35.72
2022-11-27T18:59:16.504Z,34.38
2022-11-27T19:01:45.427Z,33.67
2022-11-27T19:04:12.889Z,34.83
2022-11-27T19:06:45.021Z,33.97
2022-11-27T19:09:14.144Z,34.92
2022-11-27T19:11:43.631Z,34.95
2022-11-27T19:14:11.389Z,34.83
2022-11-27T19:16:46.177Z,34.85
2022-11-27T19:19:53.404Z,34.80
2022-11-27T19:22:08.076Z,34.30
2022-11-27T19:24:35.668Z,37.13
2022-11-27T19:27:03.865Z,34.83
2022-11-27T19:29:31.143Z,35.90
2022-11-27T19:32:01.053Z,35.80
2022-11-27T19:34:29.314Z,33.13
2022-11-27T19:36:58.442Z,35.30
2022-11-27T19:39:27.352Z,36.20
2022-11-27T19:41:55.067Z,36.20
2022-11-27T19:44:23.565Z,36.72
2022-11-27T19:46:51.132Z,36.15
2022-11-27T19:49:18.781Z,34.25
2022-11-27T19:51:46.909Z,35.38
2022-11-27T19:54:15.958Z,34.58
2022-11-27T19:56:43.991Z,35.42
2022-11-27T19:59:12.717Z,38.55
2022-11-27T20:01:42.373Z,36.47
2022-11-27T20:04:11.603Z,36.40
2022-11-27T20:06:39.915Z,36.28
2022-11-27T20:09:08.919Z,37.97
2022-11-27T20:11:36.585Z,40.08
2022-11-27T20:14:06.334Z,41.65
2022-11-27T20:16:35.236Z,45.47
2022-11-27T20:19:05.635Z,44.50
2022-11-27T20:21:35.780Z,44.70
2022-11-27T20:24:03.814Z,43.25
2022-11-27T20:26:31.334Z,45.85
2022-11-27T20:28:59.986Z,45.85
2022-11-27T20:31:32.934Z,44.00
2022-11-27T20:34:02.814Z,46.97
2022-11-27T20:36:33.774Z,47.10
2022-11-27T20:39:01.732Z,47.58
2022-11-27T20:41:30.319Z,46.10
2022-11-27T20:44:00.909Z,49.30
2022-11-27T20:46:29.601Z,47.53
2022-11-27T20:48:57.758Z,47.25
2022-11-27T20:51:30.279Z,46.58
2022-11-27T20:53:59.585Z,49.92
2022-11-27T20:56:27.400Z,47.35
2022-11-27T20:58:54.893Z,45.55
2022-11-27T21:01:26.568Z,47.25
2022-11-27T21:03:55.139Z,47.75
2022-11-27T21:06:29.648Z,48.10
2022-11-27T21:09:00.007Z,48.33
2022-11-27T21:11:29.688Z,48.80
2022-11-27T21:14:00.848Z,49.40
2022-11-27T21:16:31.661Z,48.75
2022-11-27T21:19:02.787Z,48.80
2022-11-27T21:21:30.628Z,48.97
2022-11-27T21:23:58.634Z,47.10
2022-11-27T21:26:26.674Z,49.10
2022-11-27T21:28:53.634Z,47.97
2022-11-27T21:31:24.260Z,47.85
2022-11-27T21:33:53.979Z,48.17
2022-11-27T21:36:22.840Z,49.80
2022-11-27T21:38:50.035Z,51.20
2022-11-27T21:41:18.153Z,48.15
2022-11-27T21:43:46.299Z,48.03
2022-11-27T21:46:19.081Z,50.15
2022-11-27T21:48:47.858Z,49.17
2022-11-27T21:51:15.708Z,54.63
2022-11-27T21:53:44.203Z,49.55
2022-11-27T21:56:14.953Z,48.28
2022-11-27T21:58:43.233Z,51.22
2022-11-27T22:01:17.007Z,51.72
2022-11-27T22:03:47.083Z,50.78
2022-11-27T22:06:16.189Z,49.75
2022-11-27T22:08:45.671Z,51.35
2022-11-27T22:11:16.111Z,49.42
2022-11-27T22:13:43.651Z,49.78
2022-11-27T22:16:17.944Z,48.03
2022-11-27T22:18:46.032Z,48.92
2022-11-27T22:21:14.950Z,49.83
2022-11-27T22:23:43.362Z,48.28
2022-11-27T22:26:16.218Z,51.85
2022-11-27T22:28:43.919Z,49.35
2022-11-27T22:31:12.546Z,52.90
2022-11-27T22:33:41.488Z,52.78
2022-11-27T22:36:20.453Z,50.67
2022-11-27T22:38:50.515Z,53.25
2022-11-27T22:41:19.501Z,59.90
2022-11-27T22:43:46.921Z,56.20
2022-11-27T22:46:28.342Z,52.00
2022-11-27T22:48:58.324Z,50.13
2022-11-27T22:51:28.055Z,50.38
2022-11-27T22:53:55.398Z,48.90
2022-11-27T22:56:23.430Z,53.10
2022-11-27T22:58:58.241Z,53.25
2022-11-27T23:01:34.686Z,50.65
2022-11-27T23:04:02.314Z,53.60
2022-11-27T23:06:30.312Z,50.28
2022-11-27T23:08:57.221Z,49.28
2022-11-27T23:11:26.640Z,50.55
2022-11-27T23:13:55.601Z,50.53
2022-11-27T23:16:23.400Z,48.53
2022-11-27T23:18:51.204Z,49.25
2022-11-27T23:21:21.818Z,50.13
2022-11-27T23:23:49.425Z,50.97
2022-11-27T23:26:21.896Z,52.05
2022-11-27T23:28:52.657Z,49.85
2022-11-27T23:31:30.912Z,52.55
2022-11-27T23:34:01.941Z,51.55
2022-11-27T23:36:31.703Z,52.90
2022-11-27T23:39:04.436Z,53.45
2022-11-27T23:41:32.917Z,52.03
2022-11-27T23:44:01.573Z,53.65
2022-11-27T23:46:30.368Z,54.75
2022-11-27T23:48:59.915Z,54.40
2022-11-27T23:51:30.359Z,51.17
2022-11-27T23:53:57.427Z,54.03
2022-11-27T23:56:27.461Z,52.72
2022-11-27T23:58:55.777Z,51.38
